San Bernardo, Chile
Current Conditions -  °F | °C
As of 2:00 PM on Tuesday 21 Oct 2014 (Local Time) from SCEL Reporting Station
Clear Clear  
Wind Chill: 88°   Ceiling: Unl
Heat Index: 88°   Visibility: 6mi
Dew Point: 43°   Wind: 13mph
Humidity: 21%   Direction: 210°SSW
Pressure: 29.91"   Gusts: 24mph
Location:  33.6°S, 70.7°W
Report Text: SCEL 211800Z 21011G21KT 170V250 CAVOK 31/06 Q1013 NOSIG
Loading
Personal Weather Stations






























Interactive Weather Map
Tropical Storm Tracking
New forecast layout! Learn more

10-Day Weather Forecast

Advertisements
Track Severe Weather on mobile